AST,Max TemperatureF,Mean TemperatureF,Min TemperatureF,Max Dew PointF,MeanDew PointF,Min DewpointF,Max Humidity, Mean Humidity, Min Humidity, Max Sea Level PressureIn, Mean Sea Level PressureIn, Min Sea Level PressureIn, Max VisibilityMiles, Mean VisibilityMiles, Min VisibilityMiles, Max Wind SpeedMPH, Mean Wind SpeedMPH, Max Gust SpeedMPH,PrecipitationIn, CloudCover, Events, WindDirDegrees
2013-4-1,95,85,75,55,47,39,44,26,14,29.96,29.89,29.86,9,7,6,16,7,,0.00,,,325
2013-4-2,97,86,76,63,52,41,61,35,14,29.93,29.87,29.83,7,7,6,12,6,,0.00,,,2
2013-4-3,95,84,73,66,56,36,65,43,9,29.94,29.86,29.80,7,7,6,13,5,,0.00,,,140
2013-4-4,90,84,77,70,64,52,70,53,29,29.89,29.81,29.74,7,6,5,17,9,29,0.00,,,116
2013-4-5,93,86,79,70,62,50,70,47,16,29.80,29.71,29.62,7,5,3,21,12,28,0.00,5,Rain,102
2013-4-6,84,80,75,72,53,36,78,43,12,29.71,29.62,29.53,6,3,1,22,13,34,0.00,6,,315
2013-4-7,83,76,69,63,50,39,69,42,16,29.76,29.69,29.65,7,3,1,16,9,25,0.00,4,,300
2013-4-8,86,76,67,68,61,52,78,60,31,29.82,29.76,29.71,7,5,4,12,5,,0.00,,,136
2013-4-9,90,80,70,72,63,52,83,60,31,29.88,29.81,29.77,7,6,6,13,5,,0.00,,,141
2013-4-10,89,80,72,72,68,61,83,69,40,29.86,29.81,29.74,7,6,5,14,7,,0.00,,,117
2013-4-11,87,80,73,66,63,57,73,57,31,29.90,29.83,29.77,9,7,6,14,7,,0.00,,,62
2013-4-12,91,82,73,70,60,43,78,49,18,29.92,29.86,29.80,10,7,6,14,8,,0.00,,,74
2013-4-13,100,88,76,72,62,48,78,48,10,29.89,29.84,29.80,6,5,4,20,8,16,0.00,,,127
2013-4-14,100,89,78,70,58,39,66,41,8,29.91,29.84,29.80,6,5,4,15,6,,0.00,,,149
2013-4-15,92,85,78,68,60,54,65,44,19,29.91,29.85,29.80,6,4,3,17,9,,0.00,,,359
2013-4-16,91,84,77,63,53,36,61,35,11,29.88,29.80,29.71,10,8,6,12,7,,0.00,3,,64
2013-4-17,100,91,82,70,57,50,66,34,20,29.83,29.74,29.65,7,6,4,69,12,34,0.47,4,Rain-Thunderstorm,256
2013-4-18,99,90,80,73,63,52,74,43,20,29.74,29.68,29.62,7,6,6,13,6,,0.00,3,,123
2013-4-19,96,89,82,72,65,59,70,47,30,29.74,29.69,29.62,6,6,6,25,7,,0.00,4,Rain,34
2013-4-20,101,90,79,70,56,34,70,37,8,29.72,29.66,29.62,7,6,5,17,8,20,0.00,,,360
2013-4-21,99,88,78,68,51,36,58,30,9,29.77,29.67,29.62,7,6,5,20,9,,0.00,3,,356
2013-4-22,86,82,77,54,48,38,42,31,11,29.89,29.81,29.74,7,5,4,23,18,,0.00,1,,356
2013-4-23,89,82,74,59,51,45,57,35,17,29.95,29.89,29.83,10,8,7,17,11,,0.00,,,6
2013-4-24,91,84,77,61,49,37,54,31,13,29.99,29.94,29.86,10,9,7,21,13,,0.00,,,358
2013-4-25,87,82,77,59,47,39,48,30,16,30.01,29.96,29.92,9,8,6,20,9,,0.00,6,Rain,353
2013-4-26,82,79,76,55,52,43,47,37,21,30.02,29.95,29.86,10,7,6,14,8,,0.00,6,Rain,305
2013-4-27,79,75,71,63,54,41,69,48,19,30.04,29.98,29.95,9,6,6,12,5,,0.02,7,Rain,230
2013-4-28,85,78,71,66,57,48,69,50,23,29.98,29.93,29.89,7,6,6,9,5,,0.00,4,,59
2013-4-29,89,79,69,66,59,46,73,50,22,29.98,29.90,29.86,9,7,6,17,5,,0.00,5,,160
2013-4-30,79,77,75,72,67,63,83,70,56,29.92,29.87,29.83,8,6,4,18,8,,0.02,7,Rain,68